Time;durP1;ratioP1;P1;durP2;ratioP2;P2;SDS_P1;SDS_P2;PMS_P1;PMS_P2;Temp;Humidity;BMP_temperature;BMP_pressure;BME280_temperature;BME280_humidity;BME280_pressure;Samples;Min_cycle;Max_cycle;Signal;HPM_P1;HPM_P2
2021/11/20 00:00:56;;;;;;;7.18;5.47;;;;;;;;;;6232594;23;20404;-70
2021/11/20 00:03:22;;;;;;;6.97;5.43;;;;;;;;;;6232460;23;20695;-71
2021/11/20 00:05:53;;;;;;;8.50;5.53;;;;;;;;;;6234811;23;20004;-72
2021/11/20 00:08:21;;;;;;;9.88;5.40;;;;;;;;;;6238488;23;20031;-72
2021/11/20 00:10:49;;;;;;;7.60;5.35;;;;;;;;;;6237299;23;20000;-71
2021/11/20 00:13:16;;;;;;;6.10;5.10;;;;;;;;;;6238079;23;20027;-71
2021/11/20 00:15:44;;;;;;;7.65;5.68;;;;;;;;;;6236658;23;20083;-71
2021/11/20 00:18:11;;;;;;;8.07;5.15;;;;;;;;;;6238483;23;20083;-71
2021/11/20 00:20:45;;;;;;;7.43;5.40;;;;;;;;;;6238377;23;20022;-72
2021/11/20 00:23:11;;;;;;;8.85;5.18;;;;;;;;;;6238302;23;20011;-71
2021/11/20 00:25:45;;;;;;;6.45;4.88;;;;;;;;;;6236400;23;20007;-71
2021/11/20 00:28:17;;;;;;;8.38;5.53;;;;;;;;;;6238476;23;20003;-71
2021/11/20 00:30:58;;;;;;;6.35;4.93;;;;;;;;;;6238466;23;20020;-71
2021/11/20 00:33:29;;;;;;;6.87;4.73;;;;;;;;;;6238009;23;20031;-71
2021/11/20 00:35:56;;;;;;;10.35;5.65;;;;;;;;;;6211368;23;20452;-71
2021/11/20 00:38:23;;;;;;;7.85;5.18;;;;;;;;;;6236808;23;20059;-71
2021/11/20 00:40:51;;;;;;;8.30;5.75;;;;;;;;;;6237155;23;20007;-72
2021/11/20 00:43:19;;;;;;;7.78;5.28;;;;;;;;;;6239346;23;20101;-71
2021/11/20 00:45:45;;;;;;;9.05;5.38;;;;;;;;;;6240026;23;20062;-71
2021/11/20 00:48:12;;;;;;;9.80;5.32;;;;;;;;;;6240460;23;20315;-71
2021/11/20 00:50:39;;;;;;;6.40;5.18;;;;;;;;;;6240240;23;20027;-72
2021/11/20 00:53:05;;;;;;;6.22;5.00;;;;;;;;;;6238940;23;20421;-71
2021/11/20 00:55:31;;;;;;;8.13;4.90;;;;;;;;;;6240132;23;19996;-71
2021/11/20 00:57:59;;;;;;;7.18;4.85;;;;;;;;;;6240144;23;20086;-71
2021/11/20 01:00:28;;;;;;;9.05;5.25;;;;;;;;;;6240449;23;20103;-71
2021/11/20 01:02:55;;;;;;;8.95;5.40;;;;;;;;;;6238395;23;20012;-71
2021/11/20 01:05:21;;;;;;;8.70;5.18;;;;;;;;;;6240258;23;20004;-71
2021/11/20 01:07:47;;;;;;;9.30;4.97;;;;;;;;;;6240134;23;20007;-71
2021/11/20 01:10:15;;;;;;;7.18;4.95;;;;;;;;;;6239018;23;20409;-71
2021/11/20 01:12:42;;;;;;;6.47;5.28;;;;;;;;;;6239970;23;20022;-71
2021/11/20 01:15:11;;;;;;;10.02;5.22;;;;;;;;;;6238323;23;20004;-71
2021/11/20 01:17:38;;;;;;;7.90;5.20;;;;;;;;;;6212917;23;20035;-70
2021/11/20 01:20:06;;;;;;;7.15;5.47;;;;;;;;;;6239475;23;20011;-71
2021/11/20 01:22:32;;;;;;;7.63;5.28;;;;;;;;;;6239809;23;20019;-71
2021/11/20 01:24:59;;;;;;;9.73;5.63;;;;;;;;;;6239808;23;20400;-71
2021/11/20 01:27:25;;;;;;;11.35;5.72;;;;;;;;;;6240592;23;20003;-71
2021/11/20 01:29:52;;;;;;;9.45;5.18;;;;;;;;;;6237400;23;20008;-71
2021/11/20 01:32:19;;;;;;;7.45;5.15;;;;;;;;;;6239950;23;20592;-72
2021/11/20 01:34:46;;;;;;;7.80;5.22;;;;;;;;;;6240235;23;20366;-71
2021/11/20 01:37:15;;;;;;;8.38;5.05;;;;;;;;;;6239943;23;20518;-71
2021/11/20 01:39:42;;;;;;;8.05;5.47;;;;;;;;;;6239589;23;20000;-71
2021/11/20 01:42:10;;;;;;;9.70;5.18;;;;;;;;;;6239882;23;20004;-71
2021/11/20 01:44:41;;;;;;;9.13;5.07;;;;;;;;;;6238020;23;20396;-71
2021/11/20 01:47:43;;;;;;;8.88;5.05;;;;;;;;;;6239963;23;20006;-71
2021/11/20 01:50:14;;;;;;;6.30;4.35;;;;;;;;;;6116680;23;20038;-71
2021/11/20 01:52:47;;;;;;;6.18;4.40;;;;;;;;;;6219261;23;20004;-71
2021/11/20 01:55:19;;;;;;;10.00;5.13;;;;;;;;;;6239016;23;20314;-71
2021/11/20 01:57:46;;;;;;;;;;;;;;;;;;6238572;23;20027;-71
2021/11/20 02:00:36;;;;;;;8.65;4.70;;;;;;;;;;6212844;23;20406;-71
2021/11/20 02:03:10;;;;;;;6.82;4.47;;;;;;;;;;6223732;23;20012;-71
2021/11/20 02:06:08;;;;;;;7.45;5.10;;;;;;;;;;6239883;23;20007;-71
2021/11/20 02:08:46;;;;;;;8.32;4.88;;;;;;;;;;6170965;23;20066;-71
2021/11/20 02:11:16;;;;;;;9.93;4.43;;;;;;;;;;6238737;23;20023;-72
2021/11/20 02:13:42;;;;;;;5.95;4.30;;;;;;;;;;6239713;23;20091;-72
2021/11/20 02:16:08;;;;;;;5.88;4.60;;;;;;;;;;6212470;23;20468;-71
2021/11/20 02:18:35;;;;;;;6.10;5.07;;;;;;;;;;6238842;23;20016;-71
2021/11/20 02:21:14;;;;;;;6.68;4.75;;;;;;;;;;6212437;23;20004;-71
2021/11/20 02:23:40;;;;;;;10.15;4.60;;;;;;;;;;6237467;23;20050;-71
2021/11/20 02:26:06;;;;;;;6.63;4.65;;;;;;;;;;6239755;23;20024;-71
2021/11/20 02:28:32;;;;;;;7.07;4.32;;;;;;;;;;6239779;23;20010;-71
2021/11/20 02:31:01;;;;;;;7.60;5.40;;;;;;;;;;6237988;23;20000;-72
2021/11/20 02:33:38;;;;;;;10.00;5.60;;;;;;;;;;6239784;23;20000;-71
2021/11/20 02:36:09;;;;;;;6.88;4.70;;;;;;;;;;6239777;23;20507;-71
2021/11/20 02:38:43;;;;;;;9.38;5.03;;;;;;;;;;6239729;23;20019;-71
2021/11/20 02:41:12;;;;;;;9.50;4.75;;;;;;;;;;6211763;23;20498;-71
2021/11/20 02:43:41;;;;;;;8.60;4.78;;;;;;;;;;6239455;23;20158;-71
2021/11/20 02:46:08;;;;;;;4.90;3.97;;;;;;;;;;6237204;23;20000;-71
2021/11/20 02:48:34;;;;;;;6.65;4.53;;;;;;;;;;6239366;23;20000;-71
2021/11/20 02:51:06;;;;;;;5.78;4.55;;;;;;;;;;6239337;23;20004;-72
2021/11/20 02:53:32;;;;;;;;;;;;;;;;;;6237988;23;20011;-71
2021/11/20 02:55:59;;;;;;;7.72;4.38;;;;;;;;;;6238508;23;19903;-71
2021/11/20 02:58:26;;;;;;;7.88;4.78;;;;;;;;;;6238857;23;20050;-71
2021/11/20 03:01:06;;;;;;;6.43;4.20;;;;;;;;;;6211954;23;20333;-71
2021/11/20 03:03:33;;;;;;;6.85;4.28;;;;;;;;;;6238999;23;20040;-71
2021/11/20 03:05:59;;;;;;;6.25;4.05;;;;;;;;;;6237233;22;20011;-71
2021/11/20 03:08:25;;;;;;;6.43;4.50;;;;;;;;;;6212440;23;20013;-72
2021/11/20 03:10:51;;;;;;;8.25;4.28;;;;;;;;;;6238110;23;20035;-71
2021/11/20 03:13:18;;;;;;;5.78;4.35;;;;;;;;;;6239157;23;20004;-71
2021/11/20 03:15:45;;;;;;;8.82;4.40;;;;;;;;;;6238879;23;20000;-71
2021/11/20 03:18:12;;;;;;;7.18;4.40;;;;;;;;;;6237174;23;20023;-71
2021/11/20 03:20:39;;;;;;;5.00;3.90;;;;;;;;;;6239227;23;20004;-71
2021/11/20 03:23:16;;;;;;;6.00;4.40;;;;;;;;;;6238791;23;20030;-71
2021/11/20 03:25:42;;;;;;;6.00;4.03;;;;;;;;;;6239055;23;20011;-71
2021/11/20 03:28:08;;;;;;;12.32;4.50;;;;;;;;;;6237148;23;20053;-71
2021/11/20 03:30:35;;;;;;;7.13;4.95;;;;;;;;;;6211729;23;20349;-71
2021/11/20 03:33:01;;;;;;;5.40;4.25;;;;;;;;;;6239093;23;20000;-71
2021/11/20 03:35:28;;;;;;;9.00;4.20;;;;;;;;;;6211827;23;20000;-71
2021/11/20 03:37:55;;;;;;;6.05;4.43;;;;;;;;;;6239060;23;20015;-71
2021/11/20 03:40:21;;;;;;;8.70;4.47;;;;;;;;;;6235553;23;20075;-71
2021/11/20 03:42:47;;;;;;;6.65;4.35;;;;;;;;;;6238786;23;20003;-71
2021/11/20 03:45:15;;;;;;;6.43;4.22;;;;;;;;;;6238848;23;20054;-71
2021/11/20 03:47:41;;;;;;;5.88;4.18;;;;;;;;;;6234068;23;20054;-71
2021/11/20 03:50:08;;;;;;;7.18;4.15;;;;;;;;;;6230807;23;20008;-73
2021/11/20 03:52:35;;;;;;;6.70;4.68;;;;;;;;;;6232649;23;20051;-71
2021/11/20 03:55:01;;;;;;;7.13;4.53;;;;;;;;;;6232753;23;20008;-71
2021/11/20 03:57:27;;;;;;;9.00;4.28;;;;;;;;;;6232686;23;20000;-71
2021/11/20 03:59:53;;;;;;;5.88;4.05;;;;;;;;;;6232157;23;20015;-70
2021/11/20 04:02:20;;;;;;;6.97;4.50;;;;;;;;;;6229807;23;20067;-71
2021/11/20 04:04:46;;;;;;;4.88;4.00;;;;;;;;;;6230381;23;20020;-71
2021/11/20 04:07:12;;;;;;;5.78;4.30;;;;;;;;;;6229983;23;20000;-71
2021/11/20 04:09:39;;;;;;;6.72;4.28;;;;;;;;;;6229946;23;20004;-71
2021/11/20 04:12:05;;;;;;;7.07;4.28;;;;;;;;;;6226129;23;20008;-70
2021/11/20 04:14:31;;;;;;;5.22;3.90;;;;;;;;;;6231125;23;20361;-71
2021/11/20 04:16:57;;;;;;;6.95;4.22;;;;;;;;;;6232316;23;20004;-71
2021/11/20 04:19:24;;;;;;;11.93;4.68;;;;;;;;;;6232031;23;20062;-71
2021/11/20 04:21:52;;;;;;;5.53;4.53;;;;;;;;;;6230217;23;20054;-71
2021/11/20 04:24:18;;;;;;;6.25;4.22;;;;;;;;;;6229180;23;20031;-71
2021/11/20 04:26:45;;;;;;;7.97;4.28;;;;;;;;;;6229579;23;20792;-71
2021/11/20 04:29:11;;;;;;;8.52;4.90;;;;;;;;;;6229834;23;20012;-72
2021/11/20 04:31:37;;;;;;;7.93;4.45;;;;;;;;;;6229542;23;20004;-71
2021/11/20 04:34:04;;;;;;;7.57;4.22;;;;;;;;;;6227670;23;20008;-71
2021/11/20 04:36:31;;;;;;;6.95;4.82;;;;;;;;;;6228858;23;20463;-71
2021/11/20 04:38:57;;;;;;;6.40;4.57;;;;;;;;;;6226667;23;20050;-71
2021/11/20 04:41:23;;;;;;;7.72;4.72;;;;;;;;;;6228593;23;20003;-71
2021/11/20 04:43:50;;;;;;;8.27;4.43;;;;;;;;;;6229552;23;20008;-71
2021/11/20 04:46:18;;;;;;;6.47;4.45;;;;;;;;;;6229867;23;20011;-71
2021/11/20 04:48:44;;;;;;;8.00;4.63;;;;;;;;;;6227487;23;20526;-71
2021/11/20 04:51:10;;;;;;;7.25;4.43;;;;;;;;;;6229100;23;19996;-71
2021/11/20 04:53:37;;;;;;;6.47;4.53;;;;;;;;;;6229179;23;20030;-71
2021/11/20 04:56:04;;;;;;;6.97;4.40;;;;;;;;;;6229431;23;20139;-71
2021/11/20 04:58:31;;;;;;;9.75;5.03;;;;;;;;;;6235191;23;20028;-71
2021/11/20 05:00:58;;;;;;;7.05;4.85;;;;;;;;;;6240873;23;20004;-72
2021/11/20 05:03:24;;;;;;;7.57;4.78;;;;;;;;;;6237786;23;20028;-71
2021/11/20 05:05:52;;;;;;;5.78;4.82;;;;;;;;;;6240973;23;20369;-71
2021/11/20 05:08:20;;;;;;;8.35;5.05;;;;;;;;;;6242216;23;20139;-70
2021/11/20 05:10:46;;;;;;;7.15;4.93;;;;;;;;;;6215234;23;20333;-71
2021/11/20 05:13:13;;;;;;;10.02;5.40;;;;;;;;;;6237864;23;20485;-72
2021/11/20 05:15:40;;;;;;;9.00;4.68;;;;;;;;;;6240091;23;20073;-71
2021/11/20 05:18:07;;;;;;;7.07;4.60;;;;;;;;;;6238985;23;20030;-71
2021/11/20 05:20:33;;;;;;;10.25;4.78;;;;;;;;;;6236866;23;20103;-70
2021/11/20 05:23:00;;;;;;;6.47;4.80;;;;;;;;;;6234403;23;20004;-70
2021/11/20 05:25:27;;;;;;;5.60;4.28;;;;;;;;;;6237399;23;20043;-71
2021/11/20 05:27:53;;;;;;;6.20;4.68;;;;;;;;;;6210832;23;20451;-71
2021/11/20 05:30:26;;;;;;;6.32;4.18;;;;;;;;;;6239381;23;20066;-71
2021/11/20 05:32:52;;;;;;;9.27;5.25;;;;;;;;;;6238878;23;20099;-71
2021/11/20 05:35:19;;;;;;;6.28;4.75;;;;;;;;;;6238740;23;20004;-71
2021/11/20 05:37:46;;;;;;;6.82;4.90;;;;;;;;;;6236540;23;20106;-71
2021/11/20 05:40:14;;;;;;;5.18;4.25;;;;;;;;;;6239440;23;20004;-71
2021/11/20 05:42:45;;;;;;;9.75;4.90;;;;;;;;;;6237621;23;20004;-70
2021/11/20 05:45:12;;;;;;;6.35;4.53;;;;;;;;;;6239673;23;20016;-70
2021/11/20 05:47:38;;;;;;;6.82;4.50;;;;;;;;;;6238279;23;20000;-71
2021/11/20 05:50:05;;;;;;;6.18;4.72;;;;;;;;;;6238543;23;20008;-70
2021/11/20 05:52:31;;;;;;;9.55;4.95;;;;;;;;;;6211779;23;20012;-71
2021/11/20 05:54:58;;;;;;;7.72;4.32;;;;;;;;;;6237015;23;20004;-71
2021/11/20 05:57:24;;;;;;;5.85;4.53;;;;;;;;;;6238943;23;20004;-71
2021/11/20 05:59:50;;;;;;;6.10;4.47;;;;;;;;;;6238829;23;19996;-71
2021/11/20 06:02:17;;;;;;;6.15;5.03;;;;;;;;;;6238742;23;20000;-71
2021/11/20 06:04:44;;;;;;;6.55;4.50;;;;;;;;;;6236968;23;20008;-71
2021/11/20 06:07:13;;;;;;;9.88;4.75;;;;;;;;;;6238749;23;20036;-71
2021/11/20 06:09:40;;;;;;;5.85;4.78;;;;;;;;;;6238539;23;20097;-71
2021/11/20 06:12:07;;;;;;;8.35;4.50;;;;;;;;;;6238632;23;20110;-71
2021/11/20 06:14:34;;;;;;;8.38;4.68;;;;;;;;;;6238700;23;20087;-71
2021/11/20 06:17:00;;;;;;;14.25;5.07;;;;;;;;;;6236613;23;19992;-71
2021/11/20 06:19:26;;;;;;;7.47;4.90;;;;;;;;;;6207918;23;20027;-71
2021/11/20 06:24:47;;;;;;;8.93;5.57;;;;;;;;;;5485780;23;21498;-70
2021/11/20 06:27:13;;;;;;;6.82;4.97;;;;;;;;;;6144050;23;20482;-72
2021/11/20 06:29:41;;;;;;;6.00;4.57;;;;;;;;;;6142949;23;20064;-71
2021/11/20 06:32:07;;;;;;;5.05;3.92;;;;;;;;;;6141672;23;20005;-71
2021/11/20 06:34:34;;;;;;;6.70;4.57;;;;;;;;;;6142373;23;20482;-70
2021/11/20 06:37:00;;;;;;;6.22;4.60;;;;;;;;;;6143502;23;20002;-71
2021/11/20 06:39:27;;;;;;;7.50;5.47;;;;;;;;;;6143036;23;20333;-70
2021/11/20 06:41:54;;;;;;;7.63;4.95;;;;;;;;;;6141290;23;20423;-71
2021/11/20 06:44:20;;;;;;;6.20;4.68;;;;;;;;;;6143199;23;20001;-70
2021/11/20 06:46:47;;;;;;;4.65;3.78;;;;;;;;;;6142858;23;20005;-72
2021/11/20 06:49:13;;;;;;;6.78;4.43;;;;;;;;;;6143201;23;20109;-72
2021/11/20 06:51:39;;;;;;;6.72;4.43;;;;;;;;;;6143162;23;20008;-71
2021/11/20 06:54:06;;;;;;;8.88;4.97;;;;;;;;;;6141114;23;20339;-72
2021/11/20 06:56:52;;;;;;;5.90;4.90;;;;;;;;;;6143239;23;20001;-71
2021/11/20 07:01:48;;;;;;;6.47;4.72;;;;;;;;;;6141214;23;20097;-71
2021/11/20 07:04:16;;;;;;;14.63;6.00;;;;;;;;;;6143242;23;20644;-72
2021/11/20 07:06:45;;;;;;;20.33;7.72;;;;;;;;;;6143376;23;20016;-72
2021/11/20 07:09:12;;;;;;;9.05;5.03;;;;;;;;;;6143388;23;20018;-72
2021/11/20 07:11:38;;;;;;;6.35;5.00;;;;;;;;;;6142962;23;20414;-71
2021/11/20 07:14:05;;;;;;;6.68;5.72;;;;;;;;;;6138515;23;20023;-72
2021/11/20 07:16:31;;;;;;;6.95;4.88;;;;;;;;;;6138141;23;20005;-72
2021/11/20 07:18:57;;;;;;;7.40;5.47;;;;;;;;;;6137715;23;20103;-72
2021/11/20 07:21:27;;;;;;;9.90;6.10;;;;;;;;;;6137229;23;20005;-71
2021/11/20 07:23:54;;;;;;;8.13;6.00;;;;;;;;;;6137319;23;20009;-71
2021/11/20 07:26:21;;;;;;;8.90;7.18;;;;;;;;;;6139975;23;20017;-70
2021/11/20 07:28:47;;;;;;;7.28;5.40;;;;;;;;;;6138184;23;20044;-71
2021/11/20 07:31:13;;;;;;;6.30;5.47;;;;;;;;;;6139983;23;20393;-71
2021/11/20 07:33:40;;;;;;;6.88;6.13;;;;;;;;;;6139783;23;20371;-70
2021/11/20 07:36:06;;;;;;;9.75;5.85;;;;;;;;;;6140595;23;20354;-71
2021/11/20 07:38:37;;;;;;;6.22;5.40;;;;;;;;;;6139832;23;20012;-72
2021/11/20 07:41:04;;;;;;;7.53;5.75;;;;;;;;;;6137594;23;20005;-71
2021/11/20 07:43:30;;;;;;;8.52;5.47;;;;;;;;;;6140683;23;20430;-71
2021/11/20 07:45:57;;;;;;;5.63;4.68;;;;;;;;;;6140000;23;20005;-72
2021/11/20 07:48:24;;;;;;;7.03;5.45;;;;;;;;;;6139053;23;20025;-72
2021/11/20 07:50:51;;;;;;;6.70;4.80;;;;;;;;;;6139046;23;20001;-72
2021/11/20 07:53:17;;;;;;;6.03;4.93;;;;;;;;;;6137651;23;20013;-71
2021/11/20 07:55:44;;;;;;;6.68;4.88;;;;;;;;;;6139989;23;20336;-71
2021/11/20 07:58:10;;;;;;;7.20;4.68;;;;;;;;;;6140040;23;20005;-72
2021/11/20 08:00:37;;;;;;;4.85;4.10;;;;;;;;;;6139839;23;20361;-71
2021/11/20 08:03:05;;;;;;;7.47;5.32;;;;;;;;;;6140384;23;20017;-72
2021/11/20 08:05:31;;;;;;;7.05;4.25;;;;;;;;;;6140042;23;20009;-71
2021/11/20 08:07:58;;;;;;;6.50;4.53;;;;;;;;;;6138363;23;20330;-71
2021/11/20 08:10:26;;;;;;;6.10;4.60;;;;;;;;;;6139955;23;20427;-71
2021/11/20 08:12:53;;;;;;;13.25;4.40;;;;;;;;;;6140253;23;20013;-72
2021/11/20 08:15:19;;;;;;;7.20;4.45;;;;;;;;;;6138895;23;20028;-72
2021/11/20 08:17:46;;;;;;;6.40;4.43;;;;;;;;;;6139439;23;20092;-71
2021/11/20 08:20:13;;;;;;;5.00;4.05;;;;;;;;;;6135392;23;20005;-72
2021/11/20 08:22:39;;;;;;;5.47;4.53;;;;;;;;;;6139643;23;20112;-72
2021/11/20 08:25:07;;;;;;;5.70;4.70;;;;;;;;;;6139571;23;20487;-72
2021/11/20 08:27:33;;;;;;;4.53;3.88;;;;;;;;;;6139324;23;20008;-71
2021/11/20 08:29:59;;;;;;;6.45;4.20;;;;;;;;;;6138470;23;20005;-72
2021/11/20 08:32:27;;;;;;;7.32;4.15;;;;;;;;;;6139666;23;20005;-71
2021/11/20 08:34:55;;;;;;;6.38;3.90;;;;;;;;;;6139399;23;20096;-72
2021/11/20 08:37:21;;;;;;;6.47;3.53;;;;;;;;;;6139838;23;20526;-72
2021/11/20 08:39:48;;;;;;;6.97;3.80;;;;;;;;;;6137016;23;20005;-73
2021/11/20 08:42:15;;;;;;;4.95;4.30;;;;;;;;;;6139732;23;20006;-72
2021/11/20 08:44:42;;;;;;;5.10;3.88;;;;;;;;;;6139612;23;20033;-71
2021/11/20 08:47:08;;;;;;;5.93;3.90;;;;;;;;;;6139167;23;20028;-71
2021/11/20 08:49:35;;;;;;;5.03;3.55;;;;;;;;;;6138417;23;20133;-71
2021/11/20 08:52:01;;;;;;;5.57;4.03;;;;;;;;;;6113545;23;20005;-72
2021/11/20 08:54:27;;;;;;;4.47;3.65;;;;;;;;;;6137956;23;20013;-72
2021/11/20 08:56:55;;;;;;;4.85;3.70;;;;;;;;;;6139912;23;20009;-72
2021/11/20 08:59:22;;;;;;;6.10;3.97;;;;;;;;;;6139136;23;20564;-72
2021/11/20 09:02:07;;;;;;;4.30;3.70;;;;;;;;;;6138714;23;19997;-72
2021/11/20 09:04:42;;;;;;;5.75;3.78;;;;;;;;;;6144134;23;20013;-71
2021/11/20 09:07:14;;;;;;;6.40;3.90;;;;;;;;;;6143903;23;20559;-72
2021/11/20 09:09:40;;;;;;;5.82;3.92;;;;;;;;;;6142750;23;20009;-73
2021/11/20 09:12:16;;;;;;;5.40;3.60;;;;;;;;;;6144645;23;20205;-71
2021/11/20 09:14:45;;;;;;;7.05;4.38;;;;;;;;;;6144533;23;20017;-71
2021/11/20 09:17:12;;;;;;;4.65;3.50;;;;;;;;;;6145118;23;20409;-71
2021/11/20 09:19:39;;;;;;;4.55;3.70;;;;;;;;;;6139916;23;20009;-70
2021/11/20 09:22:05;;;;;;;5.28;4.07;;;;;;;;;;6141194;23;20513;-70
2021/11/20 09:24:33;;;;;;;4.65;4.00;;;;;;;;;;6141098;23;20051;-70
2021/11/20 09:26:59;;;;;;;7.35;4.75;;;;;;;;;;6141359;23;20017;-70
2021/11/20 09:29:27;;;;;;;6.95;4.28;;;;;;;;;;6141909;23;20460;-70
2021/11/20 09:31:53;;;;;;;7.85;4.25;;;;;;;;;;6139558;23;20009;-72
2021/11/20 09:34:20;;;;;;;5.70;4.05;;;;;;;;;;6140581;23;20049;-71
2021/11/20 09:36:48;;;;;;;5.95;4.90;;;;;;;;;;6138997;23;20021;-70
2021/11/20 09:39:15;;;;;;;6.78;4.40;;;;;;;;;;6141352;23;20041;-71
2021/11/20 09:41:44;;;;;;;5.40;4.32;;;;;;;;;;6139760;23;20055;-71
2021/11/20 09:44:11;;;;;;;4.57;4.18;;;;;;;;;;6140441;23;20022;-71
2021/11/20 09:46:44;;;;;;;5.47;3.97;;;;;;;;;;6140276;23;20426;-70
2021/11/20 09:49:17;;;;;;;5.60;3.60;;;;;;;;;;6141142;23;20486;-70
2021/11/20 09:51:45;;;;;;;5.57;4.35;;;;;;;;;;6140946;23;20431;-71
2021/11/20 09:54:26;;;;;;;5.70;4.03;;;;;;;;;;6140410;23;20013;-71
2021/11/20 09:56:58;;;;;;;5.20;3.90;;;;;;;;;;6139316;23;20273;-70
2021/11/20 09:59:30;;;;;;;6.45;4.35;;;;;;;;;;6140858;23;20016;-70
2021/11/20 10:02:00;;;;;;;4.07;3.60;;;;;;;;;;6141045;23;20002;-71
2021/11/20 10:04:46;;;;;;;4.97;3.70;;;;;;;;;;6140547;23;20006;-71
2021/11/20 10:07:12;;;;;;;4.75;3.00;;;;;;;;;;6065227;23;20009;-71
2021/11/20 10:09:44;;;;;;;5.50;3.47;;;;;;;;;;6141055;23;20182;-71
2021/11/20 10:12:10;;;;;;;;;;;;;;;;;;6144973;23;19998;-70
2021/11/20 10:14:55;;;;;;;10.82;3.30;;;;;;;;;;6143132;23;19908;-70
2021/11/20 10:17:42;;;;;;;4.38;3.35;;;;;;;;;;6141424;23;20291;-71
2021/11/20 10:20:24;;;;;;;7.20;3.80;;;;;;;;;;6138670;23;20013;-71
2021/11/20 10:23:19;;;;;;;4.80;3.50;;;;;;;;;;6114239;23;20006;-71
2021/11/20 10:25:55;;;;;;;5.75;4.45;;;;;;;;;;6109239;23;20093;-71
2021/11/20 10:28:24;;;;;;;5.15;3.70;;;;;;;;;;6141101;23;20005;-72
2021/11/20 10:31:00;;;;;;;6.28;4.03;;;;;;;;;;6138227;23;20445;-73
2021/11/20 10:33:38;;;;;;;5.38;4.43;;;;;;;;;;6140770;23;20013;-72
2021/11/20 10:36:04;;;;;;;5.70;4.32;;;;;;;;;;6139923;23;20345;-71
2021/11/20 10:38:31;;;;;;;6.70;4.53;;;;;;;;;;6140166;23;20011;-71
2021/11/20 10:41:04;;;;;;;4.90;4.22;;;;;;;;;;6138591;23;20041;-71
2021/11/20 10:43:33;;;;;;;14.35;4.60;;;;;;;;;;6138057;23;20009;-71
2021/11/20 10:46:12;;;;;;;7.97;4.60;;;;;;;;;;6140779;23;20494;-71
2021/11/20 10:48:40;;;;;;;4.50;3.80;;;;;;;;;;6140173;23;20084;-71
2021/11/20 10:51:09;;;;;;;6.22;3.80;;;;;;;;;;6140485;23;20366;-71
2021/11/20 10:53:54;;;;;;;4.80;4.18;;;;;;;;;;6138469;23;20013;-71
2021/11/20 10:56:23;;;;;;;5.78;3.88;;;;;;;;;;6140309;23;20054;-71
2021/11/20 10:59:10;;;;;;;5.60;4.30;;;;;;;;;;6140515;23;20056;-71
2021/11/20 11:02:04;;;;;;;4.10;3.53;;;;;;;;;;6139172;23;20005;-71
2021/11/20 11:04:36;;;;;;;4.25;3.65;;;;;;;;;;6140524;23;20604;-71
2021/11/20 11:07:02;;;;;;;;;;;;;;;;;;6140435;23;20005;-71
2021/11/20 11:09:28;;;;;;;4.95;3.58;;;;;;;;;;6139008;23;20011;-71
2021/11/20 11:12:04;;;;;;;4.60;3.63;;;;;;;;;;6142259;23;20008;-72
2021/11/20 11:14:51;;;;;;;8.75;4.30;;;;;;;;;;6143124;23;20023;-71
2021/11/20 11:17:29;;;;;;;5.50;3.38;;;;;;;;;;6143124;23;20001;-71
2021/11/20 11:20:01;;;;;;;7.63;4.32;;;;;;;;;;6141502;23;20016;-71
2021/11/20 11:22:31;;;;;;;3.92;3.50;;;;;;;;;;6143214;23;20001;-71
2021/11/20 11:25:03;;;;;;;4.68;3.65;;;;;;;;;;6143450;23;20077;-70
2021/11/20 11:27:49;;;;;;;4.20;3.25;;;;;;;;;;6142699;23;20005;-71
2021/11/20 11:30:28;;;;;;;4.93;3.17;;;;;;;;;;6142096;23;20001;-71
2021/11/20 11:32:54;;;;;;;5.43;3.60;;;;;;;;;;6143443;23;20012;-71
2021/11/20 11:35:26;;;;;;;7.07;3.50;;;;;;;;;;6141646;23;20013;-72
2021/11/20 11:38:12;;;;;;;5.43;3.35;;;;;;;;;;6142716;23;19998;-71
2021/11/20 11:40:44;;;;;;;3.95;3.10;;;;;;;;;;6140632;23;20089;-71
2021/11/20 11:43:11;;;;;;;4.15;3.55;;;;;;;;;;6142495;23;20064;-71
2021/11/20 11:45:49;;;;;;;6.18;3.47;;;;;;;;;;6142879;23;20075;-71
2021/11/20 11:48:34;;;;;;;4.05;3.45;;;;;;;;;;6115906;23;20001;-71
2021/11/20 11:51:23;;;;;;;6.25;5.53;;;;;;;;;;6140901;23;20512;-72
2021/11/20 11:54:05;;;;;;;7.57;5.57;;;;;;;;;;6142068;23;20832;-71
2021/11/20 11:56:31;;;;;;;5.20;4.57;;;;;;;;;;6115901;23;20332;-71
2021/11/20 11:59:02;;;;;;;5.05;4.53;;;;;;;;;;6142581;23;20025;-71
2021/11/20 12:02:01;;;;;;;4.27;3.87;;;;;;;;;;6140598;23;20005;-71
2021/11/20 12:04:30;;;;;;;4.00;3.03;;;;;;;;;;6062068;23;20009;-71
2021/11/20 12:07:09;;;;;;;4.03;3.35;;;;;;;;;;6142929;23;20014;-71
2021/11/20 12:09:39;;;;;;;4.18;3.70;;;;;;;;;;6142701;23;20426;-71
2021/11/20 12:12:26;;;;;;;4.93;3.60;;;;;;;;;;6141942;23;20032;-71
2021/11/20 12:14:53;;;;;;;4.45;3.50;;;;;;;;;;6115766;23;20018;-71
2021/11/20 12:17:28;;;;;;;5.47;3.60;;;;;;;;;;6139133;23;20008;-71
2021/11/20 12:20:03;;;;;;;5.85;4.00;;;;;;;;;;6141654;23;20488;-71
2021/11/20 12:22:42;;;;;;;4.53;3.33;;;;;;;;;;6141348;23;20084;-70
2021/11/20 12:25:27;;;;;;;6.47;4.10;;;;;;;;;;6139296;23;20009;-71
2021/11/20 12:27:55;;;;;;;5.32;3.85;;;;;;;;;;6141529;23;20093;-70
2021/11/20 12:30:34;;;;;;;5.15;4.30;;;;;;;;;;6141040;23;20001;-72
2021/11/20 12:33:09;;;;;;;6.95;4.60;;;;;;;;;;6140796;23;20005;-72
2021/11/20 12:35:38;;;;;;;10.75;4.70;;;;;;;;;;6141033;23;20021;-72
2021/11/20 12:38:23;;;;;;;5.88;4.78;;;;;;;;;;6139218;23;20060;-72
2021/11/20 12:40:54;;;;;;;6.45;4.82;;;;;;;;;;6114486;23;20393;-72
2021/11/20 12:43:43;;;;;;;7.10;5.10;;;;;;;;;;6141820;23;20149;-72
2021/11/20 12:46:09;;;;;;;7.32;4.70;;;;;;;;;;6141036;23;20001;-72
2021/11/20 12:48:51;;;;;;;7.75;4.70;;;;;;;;;;6138953;23;20001;-71
2021/11/20 12:51:26;;;;;;;11.10;5.72;;;;;;;;;;6140821;23;20084;-71
2021/11/20 12:54:19;;;;;;;7.55;5.28;;;;;;;;;;6140980;23;20010;-70
2021/11/20 12:56:45;;;;;;;7.57;4.75;;;;;;;;;;6141398;23;20434;-70
2021/11/20 12:59:17;;;;;;;9.75;5.38;;;;;;;;;;6140905;23;20422;-71
2021/11/20 13:02:04;;;;;;;10.07;5.40;;;;;;;;;;6135868;23;20065;-71
2021/11/20 13:04:48;;;;;;;6.53;4.65;;;;;;;;;;6138005;23;20002;-71
2021/11/20 13:07:18;;;;;;;8.57;5.15;;;;;;;;;;6138026;23;20040;-71
2021/11/20 13:10:20;;;;;;;9.45;4.82;;;;;;;;;;6138578;23;20417;-71
2021/11/20 13:12:49;;;;;;;6.37;4.23;;;;;;;;;;5988382;23;20015;-71
2021/11/20 13:15:15;;;;;;;9.77;5.10;;;;;;;;;;6110619;23;20068;-71
2021/11/20 13:18:01;;;;;;;5.63;4.75;;;;;;;;;;6138596;23;20009;-71
2021/11/20 13:21:00;;;;;;;6.95;5.22;;;;;;;;;;6113409;23;20033;-72
2021/11/20 13:23:28;;;;;;;6.88;5.38;;;;;;;;;;6056096;23;20338;-71
2021/11/20 13:26:13;;;;;;;5.53;4.82;;;;;;;;;;6138709;23;20170;-71
2021/11/20 13:28:41;;;;;;;5.85;4.75;;;;;;;;;;6138256;23;20406;-71
2021/11/20 13:31:08;;;;;;;6.45;5.30;;;;;;;;;;6137684;23;20017;-71
2021/11/20 13:33:34;;;;;;;6.22;4.82;;;;;;;;;;6135785;23;20014;-71
2021/11/20 13:36:02;;;;;;;8.60;4.45;;;;;;;;;;6136351;23;20509;-71
2021/11/20 13:38:29;;;;;;;6.55;4.70;;;;;;;;;;6138794;23;20355;-71
2021/11/20 13:40:56;;;;;;;9.73;5.85;;;;;;;;;;6113125;23;20025;-71
2021/11/20 13:43:23;;;;;;;7.65;6.10;;;;;;;;;;6138535;23;20252;-70
2021/11/20 13:45:51;;;;;;;9.63;5.70;;;;;;;;;;6137055;23;20361;-71
2021/11/20 13:48:21;;;;;;;9.50;5.35;;;;;;;;;;6137827;23;20032;-71
2021/11/20 13:50:48;;;;;;;6.78;5.13;;;;;;;;;;6139901;23;20036;-71
2021/11/20 13:53:34;;;;;;;11.60;5.40;;;;;;;;;;6139989;23;20051;-72
2021/11/20 13:56:05;;;;;;;8.20;5.22;;;;;;;;;;6140025;23;20379;-72
2021/11/20 13:58:33;;;;;;;7.80;4.85;;;;;;;;;;6140208;23;20449;-71
2021/11/20 14:01:00;;;;;;;5.60;4.55;;;;;;;;;;6136837;23;20505;-71
2021/11/20 14:03:27;;;;;;;6.82;5.22;;;;;;;;;;6140083;23;20010;-72
2021/11/20 14:05:54;;;;;;;7.80;5.28;;;;;;;;;;6139400;23;20402;-71
2021/11/20 14:08:20;;;;;;;6.35;5.10;;;;;;;;;;6140038;23;20005;-72
2021/11/20 14:10:58;;;;;;;6.85;5.13;;;;;;;;;;6138309;23;20001;-72
2021/11/20 14:13:29;;;;;;;6.47;5.63;;;;;;;;;;6113236;23;20002;-71
2021/11/20 14:15:55;;;;;;;7.38;5.15;;;;;;;;;;6139393;23;20005;-72
2021/11/20 14:18:24;;;;;;;8.10;5.38;;;;;;;;;;6139396;23;20392;-72
2021/11/20 14:20:52;;;;;;;6.15;4.93;;;;;;;;;;6139968;23;20044;-72
2021/11/20 14:23:21;;;;;;;7.82;5.20;;;;;;;;;;6137483;23;20014;-71
2021/11/20 14:25:48;;;;;;;6.38;4.95;;;;;;;;;;6138967;23;20221;-72
2021/11/20 14:28:15;;;;;;;6.15;5.00;;;;;;;;;;6139708;23;20116;-72
2021/11/20 14:30:43;;;;;;;9.18;5.25;;;;;;;;;;6139987;23;20012;-72
2021/11/20 14:33:18;;;;;;;7.68;5.07;;;;;;;;;;6136753;23;20001;-71
2021/11/20 14:35:51;;;;;;;6.85;5.18;;;;;;;;;;6137684;23;20508;-72
2021/11/20 14:38:17;;;;;;;8.75;5.20;;;;;;;;;;6139557;23;20009;-72
2021/11/20 14:40:49;;;;;;;9.35;5.18;;;;;;;;;;6113678;23;20128;-72
2021/11/20 14:43:22;;;;;;;7.30;5.40;;;;;;;;;;6139385;23;20032;-72
2021/11/20 14:45:48;;;;;;;6.65;4.82;;;;;;;;;;6138570;23;20493;-72
2021/11/20 14:48:20;;;;;;;7.95;5.35;;;;;;;;;;6137089;23;20005;-72
2021/11/20 14:50:48;;;;;;;5.65;4.80;;;;;;;;;;6139180;23;20005;-71
2021/11/20 14:53:17;;;;;;;6.28;4.70;;;;;;;;;;6139240;23;20459;-71
2021/11/20 14:55:46;;;;;;;6.15;5.28;;;;;;;;;;6139667;23;20009;-72
2021/11/20 14:58:17;;;;;;;6.38;4.28;;;;;;;;;;6138535;23;20001;-71
2021/11/20 15:00:47;;;;;;;8.15;4.93;;;;;;;;;;6138696;23;20093;-72
2021/11/20 15:03:14;;;;;;;7.35;4.82;;;;;;;;;;6136968;23;20595;-71
2021/11/20 15:05:40;;;;;;;7.13;4.88;;;;;;;;;;6139050;23;20493;-71